createdAt,value
2019-04-27T00:01:16.733Z,15.42
2019-04-27T00:02:43.741Z,15.40
2019-04-27T00:04:06.352Z,15.38
2019-04-27T00:05:39.650Z,15.33
2019-04-27T00:06:46.539Z,15.29
2019-04-27T00:08:00.414Z,15.24
2019-04-27T00:09:15.968Z,15.21
2019-04-27T00:10:36.640Z,15.18
2019-04-27T00:11:49.423Z,15.16
2019-04-27T00:12:57.338Z,15.13
2019-04-27T00:14:01.212Z,15.11
2019-04-27T00:15:07.043Z,15.07
2019-04-27T00:16:44.521Z,15.06
2019-04-27T00:18:15.595Z,15.04
2019-04-27T00:19:31.764Z,15.00
2019-04-27T00:20:55.395Z,14.98
2019-04-27T00:22:09.600Z,14.95
2019-04-27T00:23:17.717Z,14.93
2019-04-27T00:24:23.541Z,14.92
2019-04-27T00:25:28.957Z,14.90
2019-04-27T00:26:34.016Z,14.88
2019-04-27T00:27:38.936Z,14.86
2019-04-27T00:28:43.919Z,14.86
2019-04-27T00:29:49.289Z,14.85
2019-04-27T00:30:54.214Z,14.83
2019-04-27T00:31:59.405Z,14.80
2019-04-27T00:33:05.308Z,14.79
2019-04-27T00:34:10.776Z,14.77
2019-04-27T00:35:20.537Z,14.77
2019-04-27T00:36:32.951Z,14.75
2019-04-27T00:37:49.375Z,14.74
2019-04-27T00:38:59.670Z,14.73
2019-04-27T00:40:09.175Z,14.70
2019-04-27T00:41:15.550Z,14.68
2019-04-27T00:42:20.750Z,14.66
2019-04-27T00:43:25.659Z,14.65
2019-04-27T00:44:30.630Z,14.65
2019-04-27T00:45:35.880Z,14.65
2019-04-27T00:46:41.046Z,14.64
2019-04-27T00:47:56.820Z,14.62
2019-04-27T00:48:53.409Z,14.61
2019-04-27T00:49:58.376Z,14.60
2019-04-27T00:51:04.309Z,14.57
2019-04-27T00:52:09.412Z,14.56
2019-04-27T00:53:14.706Z,14.55
2019-04-27T00:54:19.931Z,14.54
2019-04-27T00:55:25.049Z,14.53
2019-04-27T00:56:47.882Z,14.52
2019-04-27T00:58:29.785Z,14.52
2019-04-27T00:59:53.379Z,14.51
2019-04-27T01:01:12.721Z,14.49
2019-04-27T01:02:27.785Z,14.46
2019-04-27T01:03:37.088Z,14.44
2019-04-27T01:04:42.854Z,14.43
2019-04-27T01:05:47.928Z,14.43
2019-04-27T01:06:53.907Z,14.40
2019-04-27T01:07:58.834Z,14.40
2019-04-27T01:09:06.216Z,14.40
2019-04-27T01:10:13.369Z,14.40
2019-04-27T01:11:18.156Z,14.40
2019-04-27T01:12:23.735Z,14.38
2019-04-27T01:13:29.462Z,14.38
2019-04-27T01:14:34.420Z,14.37
2019-04-27T01:15:39.345Z,14.36
2019-04-27T01:16:44.668Z,14.36
2019-04-27T01:17:50.018Z,14.36
2019-04-27T01:18:54.923Z,14.36
2019-04-27T01:20:00.129Z,14.35
2019-04-27T01:21:05.151Z,14.35
2019-04-27T01:22:10.284Z,14.34
2019-04-27T01:23:15.289Z,14.34
2019-04-27T01:24:20.280Z,14.34
2019-04-27T01:25:29.276Z,14.33
2019-04-27T01:26:49.955Z,14.34
2019-04-27T01:28:20.637Z,14.33
2019-04-27T01:29:26.789Z,14.31
2019-04-27T01:30:35.521Z,14.30
2019-04-27T01:31:40.752Z,14.27
2019-04-27T01:32:45.672Z,14.26
2019-04-27T01:33:50.658Z,14.26
2019-04-27T01:34:55.722Z,14.26
2019-04-27T01:36:00.897Z,14.25
2019-04-27T01:37:05.914Z,14.24
2019-04-27T01:38:10.799Z,14.21
2019-04-27T01:39:16.628Z,14.21
2019-04-27T01:40:21.801Z,14.20
2019-04-27T01:41:26.705Z,14.19
2019-04-27T01:42:31.680Z,14.18
2019-04-27T01:43:36.683Z,14.17
2019-04-27T01:44:41.927Z,14.16
2019-04-27T01:45:46.843Z,14.16
2019-04-27T01:46:51.904Z,14.15
2019-04-27T01:47:57.111Z,14.15
2019-04-27T01:49:02.319Z,14.16
2019-04-27T01:50:08.724Z,14.15
2019-04-27T01:51:13.966Z,14.15
2019-04-27T01:52:19.495Z,14.13
2019-04-27T01:53:24.625Z,14.13
2019-04-27T01:54:29.875Z,14.12
2019-04-27T01:55:35.082Z,14.13
2019-04-27T01:56:40.161Z,14.13
2019-04-27T01:57:45.157Z,14.14
2019-04-27T01:58:50.423Z,14.12
2019-04-27T01:59:55.858Z,14.10
2019-04-27T02:01:28.621Z,14.09
2019-04-27T02:02:40.007Z,14.07
2019-04-27T02:04:06.389Z,14.06
2019-04-27T02:05:23.676Z,14.04
2019-04-27T02:06:29.573Z,14.03
2019-04-27T02:07:34.778Z,14.02
2019-04-27T02:08:40.384Z,14.01
2019-04-27T02:09:45.352Z,14.01
2019-04-27T02:10:50.419Z,14.00
2019-04-27T02:11:55.655Z,14.00
2019-04-27T02:13:01.900Z,14.00
2019-04-27T02:14:06.897Z,14.00
2019-04-27T02:15:12.146Z,14.01
2019-04-27T02:16:18.775Z,14.01
2019-04-27T02:17:23.646Z,14.02
2019-04-27T02:18:35.569Z,14.03
2019-04-27T02:19:35.328Z,14.04
2019-04-27T02:20:40.407Z,14.05
2019-04-27T02:21:45.389Z,14.06
2019-04-27T02:22:50.809Z,14.06
2019-04-27T02:23:55.709Z,14.07
2019-04-27T02:25:00.719Z,14.08
2019-04-27T02:26:05.669Z,14.08
2019-04-27T02:27:10.656Z,14.09
2019-04-27T02:28:29.819Z,14.09
2019-04-27T02:30:04.577Z,14.07
2019-04-27T02:31:26.984Z,14.08
2019-04-27T02:32:42.035Z,14.06
2019-04-27T02:33:51.031Z,14.04
2019-04-27T02:35:09.188Z,14.02
2019-04-27T02:36:15.154Z,14.02
2019-04-27T02:37:20.391Z,13.98
2019-04-27T02:38:25.401Z,13.97
2019-04-27T02:39:30.282Z,13.95
2019-04-27T02:41:01.472Z,13.93
2019-04-27T02:42:06.450Z,13.91
2019-04-27T02:43:13.283Z,13.89
2019-04-27T02:44:22.752Z,13.87
2019-04-27T02:45:30.121Z,13.86
2019-04-27T02:46:34.905Z,13.86
2019-04-27T02:47:40.827Z,13.86
2019-04-27T02:48:59.369Z,13.87
2019-04-27T02:49:52.854Z,13.86
2019-04-27T02:51:01.475Z,13.87
2019-04-27T02:52:23.223Z,13.87
2019-04-27T02:53:45.879Z,13.86
2019-04-27T02:54:50.879Z,13.86
2019-04-27T02:55:55.865Z,13.85
2019-04-27T02:57:00.854Z,13.85
2019-04-27T02:58:05.748Z,13.85
2019-04-27T02:59:11.920Z,13.86
2019-04-27T03:00:20.361Z,13.86
2019-04-27T03:01:27.106Z,13.85
2019-04-27T03:02:36.631Z,13.86
2019-04-27T03:03:41.528Z,13.86
2019-04-27T03:04:49.578Z,13.86
2019-04-27T03:05:53.628Z,13.85
2019-04-27T03:07:00.225Z,13.84
2019-04-27T03:08:05.411Z,13.85
2019-04-27T03:09:10.641Z,13.84
2019-04-27T03:10:15.854Z,13.83
2019-04-27T03:11:23.402Z,13.82
2019-04-27T03:12:31.210Z,13.81
2019-04-27T03:13:44.951Z,13.79
2019-04-27T03:15:10.216Z,13.79
2019-04-27T03:16:22.863Z,13.78
2019-04-27T03:17:39.730Z,13.76
2019-04-27T03:19:17.788Z,13.74
2019-04-27T03:20:31.792Z,13.71
2019-04-27T03:22:13.624Z,13.68
2019-04-27T03:23:19.949Z,13.66
2019-04-27T03:24:44.118Z,13.64
2019-04-27T03:26:06.916Z,13.63
2019-04-27T03:27:12.800Z,13.64
2019-04-27T03:28:20.031Z,13.63
2019-04-27T03:29:24.851Z,13.65
2019-04-27T03:30:34.791Z,13.65
2019-04-27T03:31:36.797Z,13.67
2019-04-27T03:32:43.260Z,13.68
2019-04-27T03:33:54.967Z,13.68
2019-04-27T03:34:54.981Z,13.70
2019-04-27T03:36:02.553Z,13.71
2019-04-27T03:37:07.105Z,13.72
2019-04-27T03:38:12.512Z,13.71
2019-04-27T03:39:19.862Z,13.71
2019-04-27T03:40:24.471Z,13.72
2019-04-27T03:41:29.595Z,13.73
2019-04-27T03:42:37.946Z,13.73
2019-04-27T03:43:42.831Z,13.73
2019-04-27T03:44:50.309Z,13.74
2019-04-27T03:45:54.973Z,13.73
2019-04-27T03:47:00.067Z,13.74
2019-04-27T03:48:05.244Z,13.73
2019-04-27T03:49:27.335Z,13.73
2019-04-27T03:50:22.411Z,13.73
2019-04-27T03:51:33.712Z,13.74
2019-04-27T03:52:49.847Z,13.76
2019-04-27T03:54:02.184Z,13.76
2019-04-27T03:55:12.772Z,13.77
2019-04-27T03:56:23.799Z,13.77
2019-04-27T03:57:36.236Z,13.77
2019-04-27T03:58:44.484Z,13.78
2019-04-27T04:00:00.270Z,13.79
2019-04-27T04:01:05.861Z,13.79
2019-04-27T04:02:10.847Z,13.79
2019-04-27T04:03:16.132Z,13.78
2019-04-27T04:04:21.299Z,13.79
2019-04-27T04:05:26.392Z,13.78
2019-04-27T04:06:31.775Z,13.76
2019-04-27T04:07:36.838Z,13.74
2019-04-27T04:08:42.268Z,13.72
2019-04-27T04:09:50.046Z,13.70
2019-04-27T04:10:59.699Z,13.68
2019-04-27T04:12:09.636Z,13.66
2019-04-27T04:13:33.737Z,13.66
2019-04-27T04:14:42.487Z,13.66
2019-04-27T04:16:14.325Z,13.65
2019-04-27T04:17:20.329Z,13.67
2019-04-27T04:18:26.032Z,13.68
2019-04-27T04:19:47.464Z,13.67
2019-04-27T04:20:40.273Z,13.70
2019-04-27T04:21:44.418Z,13.70
2019-04-27T04:22:51.405Z,13.70
2019-04-27T04:23:56.182Z,13.72
2019-04-27T04:25:01.285Z,13.70
2019-04-27T04:26:06.313Z,13.70
2019-04-27T04:27:11.273Z,13.68
2019-04-27T04:28:16.298Z,13.68
2019-04-27T04:29:21.491Z,13.68
2019-04-27T04:30:26.462Z,13.67
2019-04-27T04:31:33.202Z,13.66
2019-04-27T04:32:39.623Z,13.64
2019-04-27T04:33:44.824Z,13.65
2019-04-27T04:34:50.343Z,13.63
2019-04-27T04:35:55.330Z,13.64
2019-04-27T04:37:00.722Z,13.64
2019-04-27T04:38:06.056Z,13.64
2019-04-27T04:39:12.397Z,13.64
2019-04-27T04:40:22.848Z,13.64
2019-04-27T04:42:00.632Z,13.66
2019-04-27T04:43:11.201Z,13.69
2019-04-27T04:44:50.334Z,13.72
2019-04-27T04:46:13.239Z,13.75
2019-04-27T04:47:37.021Z,13.75
2019-04-27T04:48:42.310Z,13.78
2019-04-27T04:49:51.170Z,13.77
2019-04-27T04:50:54.243Z,13.79
2019-04-27T04:51:59.611Z,13.80
2019-04-27T04:53:04.684Z,13.81
2019-04-27T04:54:09.770Z,13.84
2019-04-27T04:55:14.910Z,13.85
2019-04-27T04:56:20.035Z,13.86
2019-04-27T04:57:25.210Z,13.88
2019-04-27T04:58:30.220Z,13.90
2019-04-27T04:59:35.187Z,13.93
2019-04-27T05:00:40.275Z,13.93
2019-04-27T05:01:45.100Z,13.94
2019-04-27T05:02:50.019Z,13.95
2019-04-27T05:03:54.912Z,13.95
2019-04-27T05:04:59.829Z,13.97
2019-04-27T05:06:04.815Z,13.95
2019-04-27T05:07:09.735Z,13.95
2019-04-27T05:08:14.659Z,13.97
2019-04-27T05:09:19.592Z,13.98
2019-04-27T05:10:24.537Z,14.00
2019-04-27T05:11:29.861Z,14.00
2019-04-27T05:12:35.073Z,14.02
2019-04-27T05:13:40.209Z,14.03
2019-04-27T05:14:45.163Z,14.06
2019-04-27T05:15:50.374Z,14.06
2019-04-27T05:16:55.268Z,14.06
2019-04-27T05:18:00.200Z,14.09
2019-04-27T05:19:05.459Z,14.10
2019-04-27T05:20:29.493Z,14.13
2019-04-27T05:21:35.219Z,14.14
2019-04-27T05:22:40.132Z,14.16
2019-04-27T05:23:45.065Z,14.19
2019-04-27T05:25:00.435Z,14.21
2019-04-27T05:26:05.410Z,14.22
2019-04-27T05:27:10.448Z,14.25
2019-04-27T05:28:15.341Z,14.26
2019-04-27T05:29:20.380Z,14.27
2019-04-27T05:30:25.383Z,14.27
2019-04-27T05:31:30.331Z,14.27
2019-04-27T05:32:35.579Z,14.28
2019-04-27T05:33:40.612Z,14.29
2019-04-27T05:34:45.899Z,14.30
2019-04-27T05:35:50.832Z,14.32
2019-04-27T05:36:55.761Z,14.33
2019-04-27T05:38:07.066Z,14.32
2019-04-27T05:39:09.657Z,14.33
2019-04-27T05:40:14.853Z,14.33
2019-04-27T05:41:19.959Z,14.34
2019-04-27T05:42:24.924Z,14.32
2019-04-27T05:43:36.637Z,14.32
2019-04-27T05:45:05.503Z,14.32
2019-04-27T05:46:35.744Z,14.31
2019-04-27T05:47:50.193Z,14.28
2019-04-27T05:48:53.224Z,14.26
2019-04-27T05:50:05.148Z,14.25
2019-04-27T05:51:10.413Z,14.23
2019-04-27T05:52:30.883Z,14.20
2019-04-27T05:53:35.824Z,14.17
2019-04-27T05:54:41.005Z,14.16
2019-04-27T05:55:45.942Z,14.14
2019-04-27T05:56:50.953Z,14.14
2019-04-27T05:57:55.875Z,14.13
2019-04-27T05:59:01.052Z,14.12
2019-04-27T06:00:09.040Z,14.12
2019-04-27T06:01:14.057Z,14.10
2019-04-27T06:02:20.771Z,14.08
2019-04-27T06:03:25.810Z,14.07
2019-04-27T06:04:30.743Z,14.06
2019-04-27T06:05:35.905Z,14.05
2019-04-27T06:06:41.088Z,14.05
2019-04-27T06:07:46.033Z,14.06
2019-04-27T06:08:50.953Z,14.08
2019-04-27T06:09:55.987Z,14.09
2019-04-27T06:11:00.876Z,14.11
2019-04-27T06:12:05.889Z,14.14
2019-04-27T06:13:10.862Z,14.17
2019-04-27T06:14:16.079Z,14.20
2019-04-27T06:15:21.066Z,14.22
2019-04-27T06:16:25.962Z,14.24
2019-04-27T06:17:31.003Z,14.24
2019-04-27T06:18:36.006Z,14.23
2019-04-27T06:19:43.774Z,14.23
2019-04-27T06:20:53.401Z,14.24
2019-04-27T06:21:54.372Z,14.25
2019-04-27T06:22:59.270Z,14.25
2019-04-27T06:24:04.506Z,14.27
2019-04-27T06:25:11.708Z,14.30
2019-04-27T06:26:16.291Z,14.33
2019-04-27T06:27:21.283Z,14.34
2019-04-27T06:28:26.268Z,14.36
2019-04-27T06:29:31.266Z,14.36
2019-04-27T06:30:36.269Z,14.36
2019-04-27T06:31:41.299Z,14.38
2019-04-27T06:32:46.208Z,14.38
2019-04-27T06:33:51.711Z,14.37
2019-04-27T06:34:58.775Z,14.35
2019-04-27T06:36:03.878Z,14.33
2019-04-27T06:37:09.546Z,14.31
2019-04-27T06:38:14.597Z,14.28
2019-04-27T06:39:20.563Z,14.29
2019-04-27T06:40:25.734Z,14.29
2019-04-27T06:41:31.028Z,14.27
2019-04-27T06:42:36.026Z,14.27
2019-04-27T06:43:41.066Z,14.28
2019-04-27T06:44:46.125Z,14.27
2019-04-27T06:45:51.374Z,14.28
2019-04-27T06:46:56.378Z,14.30
2019-04-27T06:48:01.292Z,14.31
2019-04-27T06:49:06.286Z,14.32
2019-04-27T06:51:02.790Z,14.32
2019-04-27T06:52:02.950Z,14.34
2019-04-27T06:53:09.114Z,14.33
2019-04-27T06:54:14.535Z,14.32
2019-04-27T06:55:19.505Z,14.32
2019-04-27T06:56:24.537Z,14.32
2019-04-27T06:57:29.552Z,14.32
2019-04-27T06:58:35.009Z,14.34
2019-04-27T06:59:40.092Z,14.36
2019-04-27T07:00:45.123Z,14.38
2019-04-27T07:01:50.177Z,14.38
2019-04-27T07:02:55.545Z,14.40
2019-04-27T07:04:00.775Z,14.41
2019-04-27T07:05:06.061Z,14.40
2019-04-27T07:06:11.399Z,14.42
2019-04-27T07:07:16.715Z,14.43
2019-04-27T07:08:21.781Z,14.45
2019-04-27T07:09:26.809Z,14.45
2019-04-27T07:10:32.034Z,14.46
2019-04-27T07:11:39.400Z,14.45
2019-04-27T07:12:44.642Z,14.44
2019-04-27T07:13:49.871Z,14.44
2019-04-27T07:14:55.303Z,14.44
2019-04-27T07:16:00.219Z,14.43
2019-04-27T07:17:05.299Z,14.43
2019-04-27T07:18:10.200Z,14.42
2019-04-27T07:19:15.255Z,14.44
2019-04-27T07:20:20.274Z,14.45
2019-04-27T07:21:25.301Z,14.47
2019-04-27T07:22:30.327Z,14.48
2019-04-27T07:23:38.900Z,14.49
2019-04-27T07:24:44.168Z,14.50
2019-04-27T07:25:49.153Z,14.50
2019-04-27T07:26:54.299Z,14.51
2019-04-27T07:27:59.343Z,14.52
2019-04-27T07:29:04.651Z,14.51
2019-04-27T07:30:12.016Z,14.50
2019-04-27T07:31:17.329Z,14.47
2019-04-27T07:32:22.272Z,14.46
2019-04-27T07:33:27.240Z,14.44
2019-04-27T07:34:32.263Z,14.44
2019-04-27T07:35:39.177Z,14.42
2019-04-27T07:36:43.963Z,14.44
2019-04-27T07:37:49.331Z,14.44
2019-04-27T07:38:54.400Z,14.47
2019-04-27T07:39:59.415Z,14.47
2019-04-27T07:41:04.314Z,14.50
2019-04-27T07:42:09.384Z,14.52
2019-04-27T07:43:29.289Z,14.56
2019-04-27T07:44:44.594Z,14.59
2019-04-27T07:45:49.631Z,14.66
2019-04-27T07:47:12.524Z,14.70
2019-04-27T07:48:18.870Z,14.73
2019-04-27T07:49:23.929Z,14.77
2019-04-27T07:50:29.065Z,14.79
2019-04-27T07:51:34.573Z,14.81
2019-04-27T07:52:40.505Z,14.84
2019-04-27T07:53:45.601Z,14.85
2019-04-27T07:54:50.551Z,14.87
2019-04-27T07:55:55.880Z,14.89
2019-04-27T07:57:00.984Z,14.90
2019-04-27T07:58:06.295Z,14.93
2019-04-27T07:59:11.351Z,14.95
2019-04-27T08:00:19.094Z,14.97
2019-04-27T08:01:24.102Z,14.98
2019-04-27T08:02:29.433Z,14.99
2019-04-27T08:03:35.091Z,15.00
2019-04-27T08:04:40.157Z,14.99
2019-04-27T08:05:45.352Z,14.98
2019-04-27T08:06:50.514Z,14.97
2019-04-27T08:07:55.611Z,14.96
2019-04-27T08:09:00.640Z,14.94
2019-04-27T08:10:05.707Z,14.91
2019-04-27T08:11:11.316Z,14.87
2019-04-27T08:12:16.655Z,14.81
2019-04-27T08:13:21.730Z,14.78
2019-04-27T08:14:28.521Z,14.74
2019-04-27T08:15:33.743Z,14.68
2019-04-27T08:16:38.947Z,14.60
2019-04-27T08:17:44.005Z,14.55
2019-04-27T08:18:51.693Z,14.51
2019-04-27T08:19:56.455Z,14.47
2019-04-27T08:21:01.687Z,14.43
2019-04-27T08:22:06.673Z,14.42
2019-04-27T08:23:11.915Z,14.41
2019-04-27T08:24:16.946Z,14.43
2019-04-27T08:25:23.626Z,14.43
2019-04-27T08:26:47.883Z,14.40
2019-04-27T08:28:00.299Z,14.37
2019-04-27T08:29:32.849Z,14.32
2019-04-27T08:30:43.199Z,14.29
2019-04-27T08:31:52.214Z,14.23
2019-04-27T08:32:58.907Z,14.20
2019-04-27T08:34:03.980Z,14.16
2019-04-27T08:35:09.604Z,14.14
2019-04-27T08:36:14.608Z,14.14
2019-04-27T08:37:19.667Z,14.18
2019-04-27T08:38:24.599Z,14.22
2019-04-27T08:39:29.753Z,14.25
2019-04-27T08:40:35.268Z,14.28
2019-04-27T08:41:40.353Z,14.31
2019-04-27T08:42:45.476Z,14.32
2019-04-27T08:43:50.581Z,14.35
2019-04-27T08:44:55.562Z,14.38
2019-04-27T08:46:00.811Z,14.40
2019-04-27T08:47:05.952Z,14.43
2019-04-27T08:48:11.096Z,14.46
2019-04-27T08:49:16.447Z,14.49
2019-04-27T08:50:21.536Z,14.50
2019-04-27T08:51:26.624Z,14.53
2019-04-27T08:52:31.671Z,14.55
2019-04-27T08:53:36.713Z,14.58
2019-04-27T08:54:41.706Z,14.65
2019-04-27T08:55:46.691Z,14.68
2019-04-27T08:56:51.722Z,14.70
2019-04-27T08:57:58.564Z,14.72
2019-04-27T08:59:03.863Z,14.71
2019-04-27T09:00:10.241Z,14.69
2019-04-27T09:01:15.640Z,14.67
2019-04-27T09:02:20.583Z,14.66
2019-04-27T09:03:26.084Z,14.65
2019-04-27T09:04:31.193Z,14.65
2019-04-27T09:05:36.267Z,14.66
2019-04-27T09:06:42.914Z,14.66
2019-04-27T09:07:59.720Z,14.67
2019-04-27T09:09:10.965Z,14.63
2019-04-27T09:10:32.512Z,14.61
2019-04-27T09:11:44.582Z,14.58
2019-04-27T09:13:26.879Z,14.59
2019-04-27T09:14:42.837Z,14.59
2019-04-27T09:16:06.904Z,14.60
2019-04-27T09:17:24.924Z,14.62
2019-04-27T09:18:32.606Z,14.63
2019-04-27T09:19:46.760Z,14.61
2019-04-27T09:20:54.758Z,14.60
2019-04-27T09:22:12.473Z,14.61
2019-04-27T09:23:10.538Z,14.61
2019-04-27T09:24:15.582Z,14.64
2019-04-27T09:25:20.638Z,14.64
2019-04-27T09:26:25.739Z,14.64
2019-04-27T09:27:30.875Z,14.60
2019-04-27T09:28:36.073Z,14.56
2019-04-27T09:29:41.380Z,14.52
2019-04-27T09:30:46.455Z,14.45
2019-04-27T09:31:51.620Z,14.36
2019-04-27T09:32:57.083Z,14.28
2019-04-27T09:34:02.133Z,14.19
2019-04-27T09:35:07.750Z,14.08
2019-04-27T09:36:13.045Z,13.99
2019-04-27T09:37:18.018Z,13.89
2019-04-27T09:38:23.073Z,13.79
2019-04-27T09:39:28.203Z,13.72
2019-04-27T09:40:33.221Z,13.70
2019-04-27T09:41:38.502Z,13.64
2019-04-27T09:42:43.418Z,13.60
2019-04-27T09:43:48.461Z,13.55
2019-04-27T09:44:53.578Z,13.52
2019-04-27T09:45:58.532Z,13.53
2019-04-27T09:47:03.585Z,13.53
2019-04-27T09:48:08.681Z,13.54
2019-04-27T09:49:13.625Z,13.56
2019-04-27T09:50:20.235Z,13.56
2019-04-27T09:51:25.687Z,13.58
2019-04-27T09:52:30.800Z,13.61
2019-04-27T09:53:36.523Z,13.65
2019-04-27T09:54:41.507Z,13.68
2019-04-27T09:55:46.868Z,13.72
2019-04-27T09:56:51.813Z,13.77
2019-04-27T09:57:57.033Z,13.85
2019-04-27T09:59:01.966Z,13.91
2019-04-27T10:00:09.494Z,13.94
2019-04-27T10:01:16.373Z,13.97
2019-04-27T10:02:21.138Z,13.97
2019-04-27T10:03:26.624Z,14.01
2019-04-27T10:04:31.773Z,14.05
2019-04-27T10:05:37.139Z,14.05
2019-04-27T10:06:42.340Z,14.03
2019-04-27T10:07:47.751Z,14.04
2019-04-27T10:08:52.759Z,14.09
2019-04-27T10:09:57.838Z,14.12
2019-04-27T10:11:02.883Z,14.13
2019-04-27T10:12:07.907Z,14.15
2019-04-27T10:13:13.075Z,14.16
2019-04-27T10:14:18.182Z,14.17
2019-04-27T10:15:23.207Z,14.17
2019-04-27T10:16:28.123Z,14.20
2019-04-27T10:17:33.127Z,14.23
2019-04-27T10:18:38.108Z,14.27
2019-04-27T10:19:43.341Z,14.30
2019-04-27T10:20:59.129Z,14.32
2019-04-27T10:21:55.032Z,14.35
2019-04-27T10:23:00.075Z,14.39
2019-04-27T10:24:06.614Z,14.44
2019-04-27T10:25:23.030Z,14.46
2019-04-27T10:26:28.011Z,14.46
2019-04-27T10:27:33.041Z,14.51
2019-04-27T10:28:38.243Z,14.53
2019-04-27T10:29:43.266Z,14.57
2019-04-27T10:30:48.416Z,14.58
2019-04-27T10:31:53.384Z,14.57
2019-04-27T10:32:58.522Z,14.58
2019-04-27T10:34:03.457Z,14.57
2019-04-27T10:35:08.670Z,14.59
2019-04-27T10:36:13.725Z,14.58
2019-04-27T10:37:18.644Z,14.61
2019-04-27T10:38:25.664Z,14.61
2019-04-27T10:39:30.520Z,14.61
2019-04-27T10:40:35.496Z,14.58
2019-04-27T10:41:40.611Z,14.54
2019-04-27T10:42:45.928Z,14.52
2019-04-27T10:43:51.003Z,14.50
2019-04-27T10:44:56.151Z,14.50
2019-04-27T10:46:01.108Z,14.50
2019-04-27T10:47:06.147Z,14.55
2019-04-27T10:48:11.236Z,14.56
2019-04-27T10:49:16.227Z,14.56
2019-04-27T10:50:21.732Z,14.59
2019-04-27T10:51:26.799Z,14.61
2019-04-27T10:52:31.870Z,14.63
2019-04-27T10:53:38.919Z,14.67
2019-04-27T10:54:43.687Z,14.65
2019-04-27T10:55:48.690Z,14.60
2019-04-27T10:56:53.620Z,14.57
2019-04-27T10:57:58.528Z,14.57
2019-04-27T10:59:06.093Z,14.55
2019-04-27T11:00:13.434Z,14.50
2019-04-27T11:01:18.602Z,14.46
2019-04-27T11:02:23.643Z,14.42
2019-04-27T11:03:46.608Z,14.40
2019-04-27T11:04:57.619Z,14.38
2019-04-27T11:06:18.940Z,14.36
2019-04-27T11:07:26.531Z,14.35
2019-04-27T11:08:31.497Z,14.30
2019-04-27T11:09:36.457Z,14.27
2019-04-27T11:10:41.816Z,14.29
2019-04-27T11:11:46.828Z,14.29
2019-04-27T11:12:51.865Z,14.26
2019-04-27T11:14:00.737Z,14.26
2019-04-27T11:15:05.874Z,14.26
2019-04-27T11:16:11.462Z,14.25
2019-04-27T11:17:16.562Z,14.24
2019-04-27T11:18:21.805Z,14.24
2019-04-27T11:19:26.955Z,14.25
2019-04-27T11:20:31.997Z,14.26
2019-04-27T11:21:36.989Z,14.27
2019-04-27T11:22:42.049Z,14.30
2019-04-27T11:23:46.991Z,14.28
2019-04-27T11:24:51.990Z,14.28
2019-04-27T11:25:57.239Z,14.31
2019-04-27T11:27:02.222Z,14.33
2019-04-27T11:28:07.255Z,14.40
2019-04-27T11:29:12.200Z,14.46
2019-04-27T11:30:17.787Z,14.53
2019-04-27T11:31:22.795Z,14.58
2019-04-27T11:32:27.928Z,14.59
2019-04-27T11:33:32.913Z,14.58
2019-04-27T11:34:55.914Z,14.56
2019-04-27T11:36:18.687Z,14.53
2019-04-27T11:37:28.754Z,14.43
2019-04-27T11:38:34.034Z,14.30
2019-04-27T11:39:39.098Z,14.16
2019-04-27T11:40:44.116Z,13.99
2019-04-27T11:41:49.140Z,13.87
2019-04-27T11:42:56.965Z,13.73
2019-04-27T11:44:00.961Z,13.62
2019-04-27T11:45:06.676Z,13.53
2019-04-27T11:46:11.711Z,13.49
2019-04-27T11:47:17.152Z,13.46
2019-04-27T11:48:22.208Z,13.45
2019-04-27T11:49:27.220Z,13.45
2019-04-27T11:50:32.678Z,13.49
2019-04-27T11:51:37.794Z,13.55
2019-04-27T11:52:42.796Z,13.66
2019-04-27T11:53:47.751Z,13.73
2019-04-27T11:54:53.294Z,13.82
2019-04-27T11:55:58.306Z,13.91
2019-04-27T11:57:03.306Z,14.02
2019-04-27T11:58:08.337Z,14.12
2019-04-27T11:59:13.408Z,14.21
2019-04-27T12:00:21.018Z,14.32
2019-04-27T12:01:27.055Z,14.47
2019-04-27T12:02:32.794Z,14.59
2019-04-27T12:03:38.145Z,14.73
2019-04-27T12:04:43.130Z,14.85
2019-04-27T12:05:48.223Z,14.95
2019-04-27T12:06:53.155Z,15.00
2019-04-27T12:07:58.132Z,15.06
2019-04-27T12:09:04.386Z,15.09
2019-04-27T12:10:09.928Z,15.08
2019-04-27T12:11:16.015Z,15.05
2019-04-27T12:12:21.848Z,15.01
2019-04-27T12:13:26.931Z,14.99
2019-04-27T12:14:32.256Z,14.98
2019-04-27T12:15:37.328Z,14.96
2019-04-27T12:16:42.298Z,14.97
2019-04-27T12:17:47.225Z,14.97
2019-04-27T12:18:52.349Z,14.99
2019-04-27T12:19:57.484Z,15.01
2019-04-27T12:21:02.539Z,15.02
2019-04-27T12:22:07.959Z,15.00
2019-04-27T12:23:13.005Z,14.98
2019-04-27T12:24:18.056Z,14.95
2019-04-27T12:25:23.152Z,14.90
2019-04-27T12:26:36.541Z,14.87
2019-04-27T12:28:03.296Z,14.85
2019-04-27T12:29:10.240Z,14.83
2019-04-27T12:30:26.191Z,14.84
2019-04-27T12:31:36.814Z,14.89
2019-04-27T12:32:41.906Z,15.00
2019-04-27T12:33:46.841Z,15.10
2019-04-27T12:34:52.123Z,15.20
2019-04-27T12:35:57.155Z,15.30
2019-04-27T12:37:02.177Z,15.38
2019-04-27T12:38:07.216Z,15.40
2019-04-27T12:39:13.341Z,15.43
2019-04-27T12:40:18.446Z,15.42
2019-04-27T12:41:23.721Z,15.38
2019-04-27T12:42:28.814Z,15.36
2019-04-27T12:43:35.554Z,15.33
2019-04-27T12:44:42.486Z,15.33
2019-04-27T12:45:47.550Z,15.36
2019-04-27T12:46:52.452Z,15.44
2019-04-27T12:47:57.414Z,15.52
2019-04-27T12:49:02.518Z,15.59
2019-04-27T12:50:09.890Z,15.63
2019-04-27T12:51:15.107Z,15.67
2019-04-27T12:52:21.345Z,15.70
2019-04-27T12:53:48.034Z,15.73
2019-04-27T12:54:57.626Z,15.74
2019-04-27T12:56:20.705Z,15.74
2019-04-27T12:57:37.357Z,15.74
2019-04-27T12:58:49.546Z,15.71
2019-04-27T13:00:06.518Z,15.67
2019-04-27T13:01:13.497Z,15.63
2019-04-27T13:02:19.538Z,15.60
2019-04-27T13:03:26.058Z,15.59
2019-04-27T13:04:31.194Z,15.58
2019-04-27T13:05:36.465Z,15.59
2019-04-27T13:06:41.382Z,15.59
2019-04-27T13:07:46.306Z,15.58
2019-04-27T13:08:51.634Z,15.58
2019-04-27T13:09:56.685Z,15.60
2019-04-27T13:11:01.691Z,15.62
2019-04-27T13:12:06.716Z,15.63
2019-04-27T13:13:11.620Z,15.64
2019-04-27T13:14:16.537Z,15.69
2019-04-27T13:15:21.670Z,15.71
2019-04-27T13:16:28.859Z,15.71
2019-04-27T13:17:33.665Z,15.70
2019-04-27T13:18:38.689Z,15.70
2019-04-27T13:19:43.663Z,15.70
2019-04-27T13:20:48.897Z,15.71
2019-04-27T13:21:55.821Z,15.71
2019-04-27T13:23:01.794Z,15.71
2019-04-27T13:24:07.177Z,15.71
2019-04-27T13:25:12.473Z,15.73
2019-04-27T13:26:17.653Z,15.77
2019-04-27T13:27:22.612Z,15.80
2019-04-27T13:28:27.541Z,15.85
2019-04-27T13:29:32.806Z,15.94
2019-04-27T13:30:38.015Z,16.02
2019-04-27T13:31:43.192Z,16.09
2019-04-27T13:32:48.214Z,16.16
2019-04-27T13:33:53.112Z,16.22
2019-04-27T13:34:58.165Z,16.30
2019-04-27T13:36:03.440Z,16.37
2019-04-27T13:37:27.359Z,16.42
2019-04-27T13:38:32.437Z,16.45
2019-04-27T13:39:37.407Z,16.48
2019-04-27T13:40:42.745Z,16.52
2019-04-27T13:41:47.700Z,16.55
2019-04-27T13:43:02.248Z,16.56
2019-04-27T13:44:07.201Z,16.56
2019-04-27T13:45:19.117Z,16.55
2019-04-27T13:46:48.908Z,16.54
2019-04-27T13:48:11.617Z,16.51
2019-04-27T13:49:50.462Z,16.47
2019-04-27T13:50:57.398Z,16.43
2019-04-27T13:52:11.036Z,16.31
2019-04-27T13:53:16.752Z,16.21
2019-04-27T13:54:26.495Z,16.10
2019-04-27T13:55:28.499Z,16.04
2019-04-27T13:56:33.508Z,15.95
2019-04-27T13:57:49.728Z,15.90
2019-04-27T13:58:45.870Z,15.84
2019-04-27T13:59:51.651Z,15.79
2019-04-27T14:00:56.732Z,15.73
2019-04-27T14:02:01.611Z,15.69
2019-04-27T14:03:06.814Z,15.66
2019-04-27T14:04:13.848Z,15.60
2019-04-27T14:05:18.997Z,15.55
2019-04-27T14:06:24.099Z,15.50
2019-04-27T14:07:29.188Z,15.48
2019-04-27T14:08:34.301Z,15.47
2019-04-27T14:09:39.501Z,15.49
2019-04-27T14:10:44.416Z,15.54
2019-04-27T14:11:49.404Z,15.63
2019-04-27T14:12:54.429Z,15.74
2019-04-27T14:13:59.457Z,15.85
2019-04-27T14:15:04.801Z,15.97
2019-04-27T14:16:09.979Z,16.03
2019-04-27T14:17:15.079Z,16.07
2019-04-27T14:18:20.295Z,16.08
2019-04-27T14:19:25.211Z,16.10
2019-04-27T14:20:30.362Z,16.13
2019-04-27T14:21:35.387Z,16.12
2019-04-27T14:22:40.316Z,16.13
2019-04-27T14:23:45.311Z,16.12
2019-04-27T14:24:50.214Z,16.15
2019-04-27T14:25:55.114Z,16.21
2019-04-27T14:27:00.028Z,16.24
2019-04-27T14:28:04.953Z,16.27
2019-04-27T14:29:09.990Z,16.33
2019-04-27T14:30:16.659Z,16.38
2019-04-27T14:31:21.627Z,16.37